Mountain Home, TX

1:34 PM CST on January 26, 2015 (GMT -0600)
7 miles SW of Harper | Change Station
CLOSE
Current Station
Personal Weather Station
Location: Harper, TX
Elevation: 2280 ft
Nearby Weather Stations

Elev 2280 ft 30.26 °N, 99.33 °W | Updated 4 minutes ago

Clear
Clear
63.5 °F
Feels Like 63.5 °F
N
9.0
Wind Variable Wind from West
Gusts 15.0 mph

Today
High -- | Low -- °F
--% Chance of Precip.
Yesterday
High -- | Low -- °F
Precip. -- in
7:31 AM 6:08 PM
Waxing Crescent, 46% visible
Pressure 30.24 in
Visibility 10.0 miles
Clouds Clear
Dew Point 35 °F
Humidity 34%
Rainfall 0.00 in
Snow Depth Not available.
UV 5 out of 12
Pollen 8.00 out of 12
Air Quality Not available.
Flu Activity Not available.
METAR KERV 261915Z AUTO 30011KT 10SM CLR 21/00 A3024 RMK AO2 T02051002

More Conditions Fewer Conditions

Pressure 30.24 in
Visibility 10.0 miles
Clouds Clear
Dew Point 35 °F
Humidity 34%
Rainfall 0.00 in
Snow Depth Not available.
UV 5 out of 12
Pollen 8.00 out of 12
Air Quality Not available.
Flu Activity Not available.
METAR KERV 261915Z AUTO 30011KT 10SM CLR 21/00 A3024 RMK AO2 T02051002

More Conditions Fewer Conditions

10-Day Weather Forecast

Almanac

Astronomy

Jan. 26, 2015 Rise Set
Actual Time
Civil Twilight
Nautical Twilight
Astronomical Twilight
Moon
Length of Visible Light
Length of Day
Tomorrow will be .
, % of the Moon is Illuminated

Today's Extremes

State Highs State Lows

Community

WunderPhotos

Upload Photos

1,790,338 photos uploaded!

WunderBlogs® & News

Nearby

Air Quality

  Air Quality AQ Index Pollutant
Not available.

Snow Depth

Station Depth Elevation

Earthquake Activity

City Distance Mag. Time & Date
Minimum magnitude displayed is 2.5.

Coastal Water Temperatures

Place Temperature

Nearby Weather Stations